Time;durP1;ratioP1;P1;durP2;ratioP2;P2;SDS_P1;SDS_P2;PMS_P1;PMS_P2;Temp;Humidity;BMP_temperature;BMP_pressure;BME280_temperature;BME280_humidity;BME280_pressure;Samples;Min_cycle;Max_cycle;Signal;HPM_P1;HPM_P2
2022/01/02 00:02:16;;;;;;;23.95;14.88;;;;;;;7.21;100.00;93884.47;5072653;28;20049;-84
2022/01/02 00:04:48;;;;;;;57.20;36.20;;;;;;;7.04;100.00;93879.50;5072484;28;20491;-85
2022/01/02 00:07:16;;;;;;;50.70;35.08;;;;;;;7.02;100.00;93886.53;5046264;28;20488;-85
2022/01/02 00:09:46;;;;;;;44.85;31.45;;;;;;;6.84;100.00;93847.72;5071756;28;20053;-85
2022/01/02 00:12:17;;;;;;;46.80;31.23;;;;;;;7.12;100.00;93888.09;5072651;28;20127;-85
2022/01/02 00:14:47;;;;;;;48.65;29.58;;;;;;;7.12;100.00;93893.19;5072391;28;20048;-85
2022/01/02 00:17:18;;;;;;;52.72;32.13;;;;;;;7.14;100.00;93888.69;5072432;28;20495;-85
2022/01/02 00:19:52;;;;;;;43.17;28.88;;;;;;;7.13;100.00;93892.22;5072292;28;20044;-85
2022/01/02 00:22:24;;;;;;;36.20;25.88;;;;;;;7.14;100.00;93893.81;5072722;28;20052;-84
2022/01/02 00:24:51;;;;;;;28.50;18.25;;;;;;;6.99;100.00;93886.88;5072214;28;20411;-85
2022/01/02 00:27:20;;;;;;;41.92;27.33;;;;;;;6.78;100.00;93883.19;5072109;28;20495;-85
2022/01/02 00:29:49;;;;;;;45.60;29.90;;;;;;;6.82;100.00;93886.19;5072346;28;20052;-85
2022/01/02 00:32:16;;;;;;;38.05;25.88;;;;;;;6.84;100.00;93884.25;5072250;28;20098;-85
2022/01/02 00:34:42;;;;;;;35.88;24.02;;;;;;;6.81;100.00;93884.63;5072208;28;20052;-85
2022/01/02 00:37:09;;;;;;;33.10;23.48;;;;;;;6.90;100.00;93893.78;5072072;28;20052;-85
2022/01/02 00:39:38;;;;;;;36.58;25.80;;;;;;;6.97;100.00;93888.00;5071830;28;20094;-85
2022/01/02 00:42:08;;;;;;;32.55;23.63;;;;;;;7.04;100.00;93892.25;5072132;28;20097;-85
2022/01/02 00:44:46;;;;;;;29.52;21.48;;;;;;;7.12;100.00;93895.75;5071813;28;20044;-85
2022/01/02 00:47:19;;;;;;;28.17;19.63;;;;;;;7.17;100.00;93891.69;5071734;28;20040;-85
2022/01/02 00:50:00;;;;;;;27.13;18.23;;;;;;;7.20;100.00;93891.38;5071796;28;20494;-85
2022/01/02 00:52:28;;;;;;;34.50;19.45;;;;;;;7.21;100.00;93892.94;5071961;28;20102;-85
2022/01/02 00:54:57;;;;;;;29.58;20.33;;;;;;;7.18;100.00;93880.50;5071836;28;20056;-85
2022/01/02 00:57:34;;;;;;;39.33;24.38;;;;;;;7.26;100.00;93889.09;5071703;28;20127;-85
2022/01/02 01:00:06;;;;;;;33.20;20.88;;;;;;;7.21;100.00;93876.81;5071685;28;20048;-85
2022/01/02 01:02:38;;;;;;;32.95;19.83;;;;;;;7.28;100.00;93897.38;5071375;28;20045;-85
2022/01/02 01:05:07;;;;;;;28.73;18.33;;;;;;;7.31;100.00;93897.03;5071294;28;20048;-85
2022/01/02 01:07:35;;;;;;;23.40;15.05;;;;;;;7.04;100.00;93866.72;5071420;28;20052;-85
2022/01/02 01:10:03;;;;;;;24.15;14.65;;;;;;;7.30;100.00;93893.69;5071488;28;20051;-82
2022/01/02 01:12:31;;;;;;;22.38;14.48;;;;;;;7.29;100.00;93898.97;5071341;28;20407;-83
2022/01/02 01:15:00;;;;;;;25.27;15.45;;;;;;;7.14;100.00;93883.59;5071216;28;20049;-83
2022/01/02 01:17:27;;;;;;;21.25;16.02;;;;;;;7.20;100.00;93895.66;5071443;28;20053;-83
2022/01/02 01:19:55;;;;;;;27.65;18.63;;;;;;;7.19;100.00;93904.31;5071424;28;20049;-83
2022/01/02 01:22:22;;;;;;;26.17;16.38;;;;;;;7.26;100.00;93909.53;5071326;28;20072;-83
2022/01/02 01:24:49;;;;;;;22.73;14.82;;;;;;;7.28;100.00;93907.59;5071159;28;20048;-84
2022/01/02 01:27:16;;;;;;;19.42;13.75;;;;;;;7.24;100.00;93907.16;5071094;28;20207;-83
2022/01/02 01:29:43;;;;;;;34.15;15.80;;;;;;;7.25;100.00;93903.63;5070937;28;20052;-83
2022/01/02 01:32:10;;;;;;;29.75;18.95;;;;;;;7.13;100.00;93895.56;5071022;28;20049;-84
2022/01/02 01:34:38;;;;;;;38.90;24.83;;;;;;;7.21;100.00;93900.63;5071159;28;20052;-84
2022/01/02 01:37:06;;;;;;;30.98;19.75;;;;;;;7.24;100.00;93906.34;5071476;28;20045;-83
2022/01/02 01:39:33;;;;;;;46.78;23.27;;;;;;;7.24;100.00;93906.34;5070383;28;20048;-84
2022/01/02 01:42:07;;;;;;;37.97;23.58;;;;;;;7.25;100.00;93906.16;5070816;28;20044;-84
2022/01/02 01:45:02;;;;;;;35.55;21.42;;;;;;;7.27;100.00;93903.44;5070914;28;20044;-83
2022/01/02 01:47:29;;;;;;;28.58;19.02;;;;;;;7.31;100.00;93909.81;5070756;28;20449;-84
2022/01/02 01:49:56;;;;;;;29.75;19.35;;;;;;;7.30;100.00;93903.09;5070875;28;20055;-83
2022/01/02 01:52:24;;;;;;;27.52;18.50;;;;;;;7.20;100.00;93886.25;5070696;28;20076;-84
2022/01/02 01:54:50;;;;;;;25.67;17.58;;;;;;;7.30;100.00;93901.34;5070730;28;20117;-83
2022/01/02 01:57:17;;;;;;;30.35;18.25;;;;;;;7.33;100.00;93905.31;5070881;28;20066;-83
2022/01/02 01:59:48;;;;;;;26.55;17.83;;;;;;;7.34;100.00;93904.34;5070744;28;20078;-83
2022/01/02 02:02:16;;;;;;;27.73;17.30;;;;;;;7.35;100.00;93900.81;5070680;28;20139;-84
2022/01/02 02:04:43;;;;;;;27.05;16.90;;;;;;;7.34;100.00;93891.56;5071176;28;20056;-83
2022/01/02 02:07:10;;;;;;;26.83;16.30;;;;;;;7.34;100.00;93900.03;5070563;28;20044;-84
2022/01/02 02:09:54;;;;;;;24.30;17.52;;;;;;;7.34;100.00;93891.56;5070831;28;20392;-83
2022/01/02 02:12:21;;;;;;;27.02;17.45;;;;;;;7.36;100.00;93902.41;5070795;28;20067;-84
2022/01/02 02:14:48;;;;;;;29.20;18.40;;;;;;;7.29;100.00;93891.28;5070640;28;20056;-83
2022/01/02 02:17:15;;;;;;;24.65;17.38;;;;;;;7.28;100.00;93884.59;5070700;28;20522;-83
2022/01/02 02:19:41;;;;;;;27.52;18.00;;;;;;;7.28;100.00;93893.06;5070428;28;20060;-83
2022/01/02 02:22:12;;;;;;;22.05;14.02;;;;;;;7.27;100.00;93894.00;5070546;28;20083;-83
2022/01/02 02:24:40;;;;;;;18.65;12.48;;;;;;;7.22;100.00;93886.88;5070446;28;20056;-84
2022/01/02 02:27:07;;;;;;;19.92;12.32;;;;;;;7.21;100.00;93892.13;5070460;28;20491;-83
2022/01/02 02:29:34;;;;;;;19.02;11.52;;;;;;;7.22;100.00;93893.72;5070423;28;20045;-84
2022/01/02 02:32:01;;;;;;;18.10;10.65;;;;;;;7.16;100.00;93885.00;5070280;28;20045;-83
2022/01/02 02:34:27;;;;;;;15.20;10.65;;;;;;;7.25;100.00;93895.16;5070376;28;20044;-83
2022/01/02 02:36:54;;;;;;;16.83;11.27;;;;;;;7.18;100.00;93890.72;5070575;28;20052;-84
2022/01/02 02:39:22;;;;;;;16.27;11.88;;;;;;;7.20;100.00;93903.34;5070395;28;20044;-83
2022/01/02 02:41:49;;;;;;;21.35;13.20;;;;;;;7.19;100.00;93896.63;5070339;28;20048;-83
2022/01/02 02:44:28;;;;;;;19.33;12.40;;;;;;;7.15;100.00;93892.84;5070302;28;20059;-83
2022/01/02 02:49:40;;;;;;;27.55;17.08;;;;;;;7.16;100.00;93894.41;5070265;28;20060;-83
2022/01/02 02:52:15;;;;;;;30.77;17.67;;;;;;;7.20;100.00;93900.78;5071190;28;20094;-83
2022/01/02 02:54:43;;;;;;;32.65;19.10;;;;;;;7.20;100.00;93905.88;5073936;28;20491;-83
2022/01/02 02:57:13;;;;;;;34.95;22.58;;;;;;;7.04;100.00;93887.16;5073824;28;20049;-83
2022/01/02 02:59:40;;;;;;;31.35;20.95;;;;;;;7.11;100.00;93889.81;5074009;28;20094;-84
2022/01/02 03:02:07;;;;;;;35.35;21.50;;;;;;;7.15;100.00;93896.19;5073853;28;20507;-83
2022/01/02 03:04:34;;;;;;;30.77;19.98;;;;;;;7.16;100.00;93895.22;5073621;28;20048;-83
2022/01/02 03:07:00;;;;;;;43.97;28.40;;;;;;;7.07;100.00;93894.50;5073879;28;20049;-83
2022/01/02 03:09:38;;;;;;;32.53;22.05;;;;;;;7.11;100.00;93900.03;5073630;28;20414;-84
2022/01/02 03:12:10;;;;;;;33.70;23.48;;;;;;;7.17;100.00;93901.91;5073849;28;20052;-83
2022/01/02 03:14:37;;;;;;;42.10;27.10;;;;;;;7.14;100.00;93899.72;5073843;28;20051;-83
2022/01/02 03:17:05;;;;;;;42.13;27.55;;;;;;;7.15;100.00;93910.72;5073343;28;20056;-83
2022/01/02 03:19:33;;;;;;;47.65;30.70;;;;;;;7.06;100.00;93910.78;5073506;28;20055;-84
2022/01/02 03:22:01;;;;;;;41.13;26.85;;;;;;;7.09;100.00;93900.22;5073442;28;20048;-84
2022/01/02 03:24:27;;;;;;;41.75;25.15;;;;;;;7.14;100.00;93906.56;5073734;28;20052;-83
2022/01/02 03:26:54;;;;;;;40.00;25.35;;;;;;;7.17;100.00;93907.03;5073583;28;20049;-84
2022/01/02 03:29:23;;;;;;;35.40;23.25;;;;;;;7.20;100.00;93906.69;5073310;28;20040;-83
2022/01/02 03:31:50;;;;;;;39.55;22.10;;;;;;;7.24;100.00;93908.91;5073416;28;20067;-84
2022/01/02 03:34:17;;;;;;;30.40;20.38;;;;;;;7.05;100.00;93891.28;5073247;28;20051;-83
2022/01/02 03:36:43;;;;;;;35.70;22.88;;;;;;;7.15;100.00;93903.06;5073079;28;20048;-83
2022/01/02 03:39:10;;;;;;;36.00;21.60;;;;;;;7.14;100.00;93906.56;5073145;28;20533;-83
2022/01/02 03:41:37;;;;;;;54.28;28.27;;;;;;;7.17;100.00;93912.13;5073515;28;20048;-83
2022/01/02 03:44:04;;;;;;;64.03;30.85;;;;;;;7.18;100.00;93912.94;5073030;28;20045;-83
2022/01/02 03:46:32;;;;;;;75.13;33.05;;;;;;;7.16;100.00;93900.34;5069096;28;20045;-83
2022/01/02 03:48:59;;;;;;;81.25;37.85;;;;;;;7.22;100.00;93911.63;5073138;28;21020;-83
2022/01/02 03:51:26;;;;;;;52.08;28.10;;;;;;;7.22;100.00;93903.94;5072989;28;20040;-83
2022/01/02 03:53:52;;;;;;;46.05;24.80;;;;;;;7.21;100.00;93910.84;5072877;28;20045;-84
2022/01/02 03:56:19;;;;;;;37.65;22.33;;;;;;;7.19;100.00;93906.88;5072799;28;20491;-83
2022/01/02 03:58:46;;;;;;;35.88;21.55;;;;;;;7.15;100.00;93901.31;5073166;28;20560;-83
2022/01/02 04:01:13;;;;;;;30.92;19.98;;;;;;;7.12;100.00;93895.75;5072751;28;20094;-83
2022/01/02 04:03:41;;;;;;;31.05;19.65;;;;;;;7.19;100.00;93905.09;5072251;28;20473;-84
2022/01/02 04:06:08;;;;;;;38.47;21.38;;;;;;;7.10;100.00;93895.91;5072485;28;20063;-84
2022/01/02 04:08:34;;;;;;;35.20;20.90;;;;;;;7.21;100.00;93910.03;5072482;28;20049;-84
2022/01/02 04:11:01;;;;;;;40.83;24.27;;;;;;;7.24;100.00;93917.38;5072674;28;20048;-84
2022/01/02 04:13:28;;;;;;;49.30;26.85;;;;;;;7.26;100.00;93917.97;5072522;28;20411;-84
2022/01/02 04:15:55;;;;;;;50.58;27.88;;;;;;;7.26;100.00;93924.88;5072593;28;20071;-84
2022/01/02 04:18:21;;;;;;;47.20;25.67;;;;;;;7.26;100.00;93923.09;5072249;28;20052;-84
2022/01/02 04:20:50;;;;;;;38.75;22.80;;;;;;;7.28;100.00;93928.03;5072532;28;20052;-84
2022/01/02 04:23:17;;;;;;;37.75;21.65;;;;;;;7.28;100.00;93928.03;5072502;28;20102;-84
2022/01/02 04:25:44;;;;;;;33.88;21.65;;;;;;;7.28;100.00;93928.84;5072132;28;20064;-84
2022/01/02 04:28:10;;;;;;;30.52;21.08;;;;;;;7.26;100.00;93933.31;5072262;28;20445;-84
2022/01/02 04:30:37;;;;;;;31.83;21.33;;;;;;;7.28;100.00;93933.16;5072164;28;20487;-84
2022/01/02 04:33:04;;;;;;;34.80;21.40;;;;;;;7.26;100.00;93935.88;5072036;28;20048;-84
2022/01/02 04:35:31;;;;;;;33.85;20.35;;;;;;;7.26;100.00;93924.88;5072319;28;20053;-84
2022/01/02 04:37:59;;;;;;;32.35;21.05;;;;;;;7.20;100.00;93937.34;5072185;28;20664;-84
2022/01/02 04:40:26;;;;;;;29.60;20.10;;;;;;;7.24;100.00;93937.00;5072120;28;20045;-84
2022/01/02 04:42:53;;;;;;;31.90;21.88;;;;;;;7.21;100.00;93933.84;5072009;28;20052;-84
2022/01/02 04:45:20;;;;;;;37.47;23.27;;;;;;;7.19;100.00;93935.75;5071651;28;20487;-84
2022/01/02 04:47:46;;;;;;;32.63;22.13;;;;;;;7.19;100.00;93937.53;5071861;28;20475;-85
2022/01/02 04:50:13;;;;;;;32.80;21.35;;;;;;;7.21;100.00;93936.38;5072004;28;20091;-84
2022/01/02 04:52:40;;;;;;;30.50;21.50;;;;;;;7.15;100.00;93915.81;5071831;28;20178;-84
2022/01/02 04:55:09;;;;;;;30.67;21.13;;;;;;;7.31;100.00;93937.94;5071921;28;20041;-84
2022/01/02 04:57:35;;;;;;;35.20;23.45;;;;;;;7.29;100.00;93929.63;5071611;28;20465;-84
2022/01/02 05:00:04;;;;;;;45.97;25.45;;;;;;;7.32;100.00;93942.06;5071475;28;20098;-84
2022/01/02 05:02:31;;;;;;;35.42;23.70;;;;;;;7.34;100.00;93938.38;5071860;28;20490;-84
2022/01/02 05:04:58;;;;;;;33.47;21.45;;;;;;;7.38;100.00;93932.91;5071493;28;20048;-84
2022/01/02 05:07:25;;;;;;;48.72;29.63;;;;;;;7.34;100.00;93943.50;5071530;28;20056;-84
2022/01/02 05:09:51;;;;;;;95.03;46.92;;;;;;;7.32;100.00;93942.06;5071523;28;20044;-84
2022/01/02 05:12:20;;;;;;;113.05;59.40;;;;;;;7.38;100.00;93938.03;5070881;28;20094;-84
2022/01/02 05:14:46;;;;;;;83.40;42.35;;;;;;;7.37;100.00;93942.34;5070428;28;20041;-84
2022/01/02 05:17:13;;;;;;;58.63;34.35;;;;;;;7.35;100.00;93937.41;5070607;28;20068;-84
2022/01/02 05:19:40;;;;;;;55.38;31.95;;;;;;;7.34;100.00;93928.16;5070779;28;20048;-84
2022/01/02 05:22:07;;;;;;;52.70;32.63;;;;;;;7.31;100.00;93928.47;5070475;28;20048;-83
2022/01/02 05:24:34;;;;;;;49.38;31.65;;;;;;;7.22;100.00;93920.09;5070582;28;20048;-84
2022/01/02 05:27:00;;;;;;;53.40;33.67;;;;;;;7.27;100.00;93927.22;5044470;28;20041;-85
2022/01/02 05:29:29;;;;;;;56.30;33.53;;;;;;;7.29;100.00;93924.50;5070148;28;20041;-83
2022/01/02 05:31:56;;;;;;;40.22;26.40;;;;;;;7.33;100.00;93936.75;5071253;28;20057;-83
2022/01/02 05:34:22;;;;;;;37.05;23.90;;;;;;;7.25;100.00;93918.13;5070980;28;20051;-83
2022/01/02 05:36:49;;;;;;;31.42;22.20;;;;;;;7.31;100.00;93932.81;5070508;28;20052;-83
2022/01/02 05:39:18;;;;;;;31.85;21.00;;;;;;;7.30;100.00;93929.47;5070714;28;20086;-83
2022/01/02 05:41:45;;;;;;;28.90;20.25;;;;;;;7.30;100.00;93934.56;5070796;28;20064;-83
2022/01/02 05:44:13;;;;;;;24.98;18.35;;;;;;;7.30;100.00;93938.88;5071030;28;20040;-83
2022/01/02 05:46:42;;;;;;;28.42;19.98;;;;;;;7.35;100.00;93939.97;5068062;28;20510;-83
2022/01/02 05:49:09;;;;;;;32.92;22.08;;;;;;;7.38;100.00;93943.13;5070884;28;21048;-83
2022/01/02 05:51:36;;;;;;;33.58;23.25;;;;;;;7.31;100.00;93927.72;5071063;28;20049;-84
2022/01/02 05:54:03;;;;;;;33.00;22.15;;;;;;;7.30;100.00;93936.31;5070679;28;20060;-84
2022/01/02 05:56:30;;;;;;;33.95;24.10;;;;;;;7.14;100.00;93935.50;5070776;28;20059;-83
2022/01/02 05:58:57;;;;;;;30.45;23.02;;;;;;;7.25;100.00;93933.47;5070594;28;20045;-83
2022/01/02 06:01:24;;;;;;;32.53;22.30;;;;;;;7.15;100.00;93915.81;5070720;28;20049;-84
2022/01/02 06:03:53;;;;;;;33.55;25.95;;;;;;;7.10;100.00;93944.44;5069120;28;20049;-84
2022/01/02 06:06:20;;;;;;;33.13;24.02;;;;;;;6.78;100.00;93947.03;5070630;28;20094;-84
2022/01/02 06:08:47;;;;;;;31.33;21.85;;;;;;;6.84;100.00;93940.44;5071015;28;20091;-83
2022/01/02 06:11:13;;;;;;;36.00;26.60;;;;;;;6.92;100.00;93944.72;5070748;28;20536;-83
2022/01/02 06:13:40;;;;;;;154.77;62.22;;;;;;;6.94;100.00;93958.09;5070547;28;20487;-83
2022/01/02 06:16:08;;;;;;;237.10;92.60;;;;;;;7.02;100.00;93950.41;5070456;28;20059;-84
2022/01/02 06:18:34;;;;;;;168.02;69.50;;;;;;;7.10;100.00;93957.22;5070416;28;20136;-84
2022/01/02 06:21:03;;;;;;;188.18;75.65;;;;;;;7.11;100.00;93956.25;5070970;28;20044;-83
2022/01/02 06:23:30;;;;;;;87.85;41.47;;;;;;;7.11;100.00;93956.25;5070793;28;20044;-83
2022/01/02 06:25:57;;;;;;;71.50;35.35;;;;;;;7.18;100.00;93957.16;5071120;28;20052;-83
2022/01/02 06:28:23;;;;;;;109.05;52.17;;;;;;;7.22;100.00;93965.28;5074647;28;20059;-84
2022/01/02 06:30:50;;;;;;;78.28;39.35;;;;;;;7.27;100.00;93963.00;5074557;28;20118;-84
2022/01/02 06:33:17;;;;;;;78.47;38.70;;;;;;;7.31;100.00;93973.72;5074443;28;20057;-84
2022/01/02 06:35:44;;;;;;;52.38;30.45;;;;;;;7.36;100.00;93979.06;5074139;28;20048;-83
2022/01/02 06:38:14;;;;;;;38.38;25.98;;;;;;;7.40;100.00;93972.66;5074333;28;20048;-84
2022/01/02 06:40:41;;;;;;;40.42;27.40;;;;;;;7.27;100.00;93982.66;5074249;28;20053;-84
2022/01/02 06:43:08;;;;;;;34.25;24.02;;;;;;;7.15;100.00;93982.25;5074504;28;20438;-84
2022/01/02 06:45:35;;;;;;;68.45;34.50;;;;;;;7.19;100.00;93984.28;5074134;28;20487;-84
2022/01/02 06:48:03;;;;;;;60.22;32.72;;;;;;;7.19;100.00;93991.19;5073960;28;20491;-84
2022/01/02 06:50:30;;;;;;;47.20;29.05;;;;;;;7.18;100.00;93992.94;5073714;28;20052;-84
2022/01/02 06:52:57;;;;;;;75.28;51.95;;;;;;;7.27;100.00;93998.00;5074201;28;20146;-84
2022/01/02 06:55:25;;;;;;;62.95;44.05;;;;;;;7.20;100.00;93985.91;5074123;28;20048;-84
2022/01/02 06:57:52;;;;;;;72.78;48.08;;;;;;;6.88;100.00;93967.25;5073851;28;20052;-84
2022/01/02 07:00:19;;;;;;;51.80;36.33;;;;;;;7.14;100.00;93993.44;5073916;28;20138;-84
2022/01/02 07:02:46;;;;;;;56.05;37.83;;;;;;;7.17;100.00;94000.78;5073919;28;20041;-84
2022/01/02 07:05:13;;;;;;;42.38;30.20;;;;;;;7.17;100.00;93993.91;5073806;28;20048;-84
2022/01/02 07:07:44;;;;;;;61.45;40.65;;;;;;;7.19;100.00;93986.06;5073742;28;20770;-84
2022/01/02 07:10:14;;;;;;;37.88;26.92;;;;;;;7.28;100.00;94000.41;5073369;28;20667;-84
2022/01/02 07:12:43;;;;;;;43.75;30.85;;;;;;;7.16;100.00;93987.19;5073574;28;20478;-84
2022/01/02 07:15:11;;;;;;;83.40;56.75;;;;;;;7.20;100.00;93988.47;5073642;28;20048;-85
2022/01/02 07:17:38;;;;;;;45.60;32.25;;;;;;;7.27;100.00;94001.34;5073566;28;20055;-85
2022/01/02 07:20:06;;;;;;;28.48;18.60;;;;;;;7.05;100.00;93950.03;5073734;28;20097;-85
2022/01/02 07:22:33;;;;;;;30.33;20.27;;;;;;;7.40;100.00;93998.22;5073124;28;20045;-85
2022/01/02 07:25:00;;;;;;;27.83;19.08;;;;;;;7.44;100.00;94003.78;5072889;28;20090;-85
2022/01/02 07:27:27;;;;;;;26.80;18.17;;;;;;;7.36;100.00;93986.75;5072724;28;20384;-83
2022/01/02 07:29:56;;;;;;;27.48;17.90;;;;;;;7.48;100.00;94005.84;5072744;28;20056;-83
2022/01/02 07:32:23;;;;;;;30.25;21.67;;;;;;;7.51;100.00;94014.94;5073575;28;20052;-83
2022/01/02 07:34:50;;;;;;;26.90;17.30;;;;;;;7.41;100.00;93997.25;5073450;28;20052;-83
2022/01/02 07:37:17;;;;;;;40.45;24.25;;;;;;;7.51;100.00;94004.72;5072481;28;20492;-83
2022/01/02 07:39:44;;;;;;;32.25;21.17;;;;;;;7.57;100.00;94006.59;5073093;28;20044;-83
2022/01/02 07:42:11;;;;;;;15.73;11.35;;;;;;;7.51;100.00;94007.28;5073186;28;20056;-83
2022/01/02 07:44:38;;;;;;;23.88;12.98;;;;;;;7.66;100.00;94009.88;5072926;28;20052;-83
2022/01/02 07:47:08;;;;;;;16.33;11.65;;;;;;;7.52;100.00;94003.75;5073183;28;20068;-83
2022/01/02 07:49:35;;;;;;;18.92;12.73;;;;;;;7.70;100.00;94012.88;5072981;28;20045;-83
2022/01/02 07:52:02;;;;;;;54.72;25.15;;;;;;;7.60;100.00;94002.91;5072716;28;20388;-84
2022/01/02 07:54:29;;;;;;;56.42;21.15;;;;;;;7.65;100.00;94007.50;5073402;28;20407;-84
2022/01/02 07:56:55;;;;;;;95.03;35.42;;;;;;;7.62;100.00;94012.00;5072745;28;20080;-84
2022/01/02 07:59:22;;;;;;;25.52;13.02;;;;;;;7.64;100.00;94013.56;5072755;28;20056;-84
2022/01/02 08:01:49;;;;;;;9.50;6.03;;;;;;;7.66;100.00;94017.56;5073030;28;20049;-84
2022/01/02 08:04:18;;;;;;;13.20;9.15;;;;;;;7.59;100.00;94025.09;5072724;28;20048;-84
2022/01/02 08:06:45;;;;;;;14.38;10.35;;;;;;;7.50;100.00;93998.00;5072747;28;20054;-84
2022/01/02 08:09:12;;;;;;;9.93;7.20;;;;;;;7.40;100.00;93985.44;5072956;28;20109;-84
2022/01/02 08:11:39;;;;;;;14.57;7.75;;;;;;;7.58;100.00;94023.50;5072552;28;20057;-84
2022/01/02 08:14:06;;;;;;;16.35;13.02;;;;;;;7.73;100.00;94031.25;5072831;28;20044;-84
2022/01/02 08:16:33;;;;;;;19.73;11.93;;;;;;;7.82;100.00;94026.06;5072743;28;20048;-84
2022/01/02 08:19:00;;;;;;;36.40;18.33;;;;;;;7.82;100.00;94031.97;5072776;28;20055;-84
2022/01/02 08:21:28;;;;;;;16.55;10.27;;;;;;;7.88;100.00;94045.84;5072413;28;20048;-84
2022/01/02 08:23:55;;;;;;;14.60;8.55;;;;;;;7.79;100.00;94040.00;5072884;28;20055;-83
2022/01/02 08:26:23;;;;;;;24.88;13.43;;;;;;;7.70;100.00;94030.78;5072196;28;20045;-82
2022/01/02 08:28:50;;;;;;;11.50;7.53;;;;;;;7.59;100.00;94043.00;5072198;28;20483;-84
2022/01/02 08:31:17;;;;;;;27.38;14.68;;;;;;;7.63;100.00;94033.22;5072488;28;20098;-84
2022/01/02 08:33:44;;;;;;;22.30;11.88;;;;;;;7.60;100.00;94033.59;5072220;28;20086;-83
2022/01/02 08:36:11;;;;;;;14.73;9.35;;;;;;;7.64;100.00;94034.81;5072116;28;20441;-84
2022/01/02 08:38:39;;;;;;;10.63;7.32;;;;;;;7.58;100.00;94026.06;5072047;28;20101;-83
2022/01/02 08:41:06;;;;;;;8.82;5.88;;;;;;;7.67;100.00;94026.00;5071304;28;20458;-83
2022/01/02 08:43:34;;;;;;;6.03;4.63;;;;;;;7.65;100.00;94023.63;5069892;28;20406;-84
2022/01/02 08:46:01;;;;;;;9.23;6.22;;;;;;;7.73;100.00;94017.66;5071807;28;20040;-84
2022/01/02 08:48:28;;;;;;;8.60;5.97;;;;;;;7.82;100.00;94029.41;5072511;28;20053;-84
2022/01/02 08:50:55;;;;;;;14.43;7.15;;;;;;;7.95;100.00;94028.03;5071746;28;20044;-84
2022/01/02 08:53:28;;;;;;;15.40;8.75;;;;;;;7.96;100.00;94014.28;5071653;28;20048;-84
2022/01/02 08:55:56;;;;;;;15.95;9.38;;;;;;;7.87;100.00;93981.09;5071593;28;20142;-84
2022/01/02 08:58:23;;;;;;;14.45;7.78;;;;;;;8.23;100.00;94028.28;5071720;28;20060;-84
2022/01/02 09:00:50;;;;;;;25.38;14.98;;;;;;;8.39;100.00;94029.09;5071485;28;20048;-82
2022/01/02 09:03:17;;;;;;;13.50;7.13;;;;;;;8.41;100.00;94030.50;5071335;28;20045;-84
2022/01/02 09:05:44;;;;;;;14.23;8.27;;;;;;;8.53;100.00;94017.28;5074121;28;20048;-85
2022/01/02 09:08:10;;;;;;;10.02;6.30;;;;;;;8.79;100.00;94034.78;5071178;28;20113;-85
2022/01/02 09:10:37;;;;;;;13.63;9.35;;;;;;;8.89;100.00;94037.03;5069275;28;20102;-85
2022/01/02 09:13:07;;;;;;;6.60;5.00;;;;;;;8.87;100.00;94022.81;5071747;28;20487;-83
2022/01/02 09:15:34;;;;;;;5.78;3.80;;;;;;;8.91;100.00;94029.19;5071369;28;20051;-85
2022/01/02 09:18:01;;;;;;;6.72;4.93;;;;;;;9.07;100.00;94035.88;5071190;28;20149;-83
2022/01/02 09:20:27;;;;;;;6.15;4.57;;;;;;;9.18;100.00;94029.50;5071125;28;20075;-85
2022/01/02 09:22:55;;;;;;;16.00;13.15;;;;;;;9.34;100.00;94023.34;5071142;28;20044;-85
2022/01/02 09:25:22;;;;;;;7.22;4.97;;;;;;;9.41;100.00;94010.59;5071301;28;20048;-84
2022/01/02 09:27:49;;;;;;;17.70;10.65;;;;;;;9.40;100.00;94017.50;5070975;28;20510;-84
2022/01/02 09:30:17;;;;;;;21.88;14.50;;;;;;;9.46;100.00;94010.84;5071161;28;20110;-84
2022/01/02 09:32:44;;;;;;;34.03;20.30;;;;;;;9.56;100.00;94007.97;5071197;28;20048;-84
2022/01/02 09:35:12;;;;;;;9.38;4.60;;;;;;;9.68;100.00;94003.94;5070860;28;20060;-84
2022/01/02 09:37:39;;;;;;;18.00;8.30;;;;;;;9.84;100.00;93996.97;5071253;28;20044;-84
2022/01/02 09:40:07;;;;;;;9.45;5.88;;;;;;;9.99;100.00;93994.31;5071290;28;20123;-85
2022/01/02 09:42:36;;;;;;;7.70;5.28;;;;;;;9.74;100.00;93995.53;5070912;28;20090;-84
2022/01/02 09:45:04;;;;;;;9.63;7.05;;;;;;;9.84;100.00;93986.72;5070999;28;20049;-84
2022/01/02 09:47:33;;;;;;;5.85;4.10;;;;;;;9.41;100.00;93990.91;5070703;28;20049;-85
2022/01/02 09:50:03;;;;;;;5.47;3.95;;;;;;;9.57;100.00;93983.91;5071027;28;20050;-84
2022/01/02 09:52:30;;;;;;;4.88;3.78;;;;;;;9.68;100.00;93982.66;5071026;28;20044;-85
2022/01/02 09:54:57;;;;;;;9.75;6.55;;;;;;;9.84;100.00;93973.88;5070732;28;20495;-84
2022/01/02 09:57:24;;;;;;;9.07;6.18;;;;;;;9.98;100.00;93964.50;5070734;28;20049;-84
2022/01/02 09:59:51;;;;;;;6.60;3.95;;;;;;;10.08;100.00;93980.38;5070439;28;20044;-85
2022/01/02 10:02:18;;;;;;;5.63;3.60;;;;;;;9.85;100.00;93973.69;5070287;28;20060;-84
2022/01/02 10:04:46;;;;;;;9.85;4.95;;;;;;;9.95;100.00;93975.94;5070908;28;20049;-84
2022/01/02 10:07:28;;;;;;;14.10;5.55;;;;;;;10.24;100.00;93963.09;5070808;28;20048;-84
2022/01/02 10:09:55;;;;;;;6.38;4.15;;;;;;;10.36;100.00;93974.44;5070672;28;20053;-84
2022/01/02 10:12:27;;;;;;;5.03;3.40;;;;;;;10.42;100.00;93975.47;5070593;28;20479;-85
2022/01/02 10:15:11;;;;;;;6.10;3.35;;;;;;;10.47;99.81;93969.78;5070645;28;20061;-84
2022/01/02 10:17:58;;;;;;;6.85;4.55;;;;;;;10.32;100.00;93964.72;5070449;28;20139;-85
2022/01/02 10:20:29;;;;;;;25.33;13.52;;;;;;;10.05;100.00;93964.56;5070621;28;20102;-84
2022/01/02 10:23:14;;;;;;;14.77;8.57;;;;;;;10.07;100.00;93916.38;5070370;28;20560;-84
2022/01/02 10:25:47;;;;;;;10.23;5.53;;;;;;;10.10;100.00;93957.88;5070486;28;20052;-85
2022/01/02 10:28:29;;;;;;;7.45;4.68;;;;;;;9.54;100.00;93948.41;5066930;28;20044;-84
2022/01/02 10:31:00;;;;;;;14.32;9.90;;;;;;;9.53;100.00;93947.59;5069869;28;20052;-84
2022/01/02 10:33:27;;;;;;;5.00;4.30;;;;;;;9.19;100.00;93943.94;5070185;28;20044;-84
2022/01/02 10:36:01;;;;;;;10.50;6.55;;;;;;;9.41;100.00;93931.13;5070346;28;20045;-84
2022/01/02 10:38:28;;;;;;;25.63;15.88;;;;;;;9.55;100.00;93935.41;5070234;28;20052;-84
2022/01/02 10:40:55;;;;;;;13.68;9.23;;;;;;;9.71;100.00;93936.09;5070543;28;20060;-84
2022/01/02 10:43:30;;;;;;;8.43;5.30;;;;;;;9.73;100.00;93922.09;5070411;28;20051;-84
2022/01/02 10:45:59;;;;;;;17.30;8.43;;;;;;;9.99;100.00;93917.31;5070212;28;20061;-84
2022/01/02 10:48:38;;;;;;;11.43;6.50;;;;;;;10.15;100.00;93911.13;5070168;28;20056;-84
2022/01/02 10:51:09;;;;;;;10.13;5.22;;;;;;;10.40;100.00;93919.13;5069957;28;20048;-84
2022/01/02 10:53:37;;;;;;;7.43;4.38;;;;;;;10.61;100.00;93921.81;5070245;28;20053;-84
2022/01/02 10:56:34;;;;;;;20.13;9.43;;;;;;;10.66;100.00;93889.41;5068480;28;20053;-85
2022/01/02 10:59:02;;;;;;;8.98;3.40;;;;;;;10.36;100.00;93915.34;5057836;28;20150;-84
2022/01/02 11:01:29;;;;;;;10.07;4.30;;;;;;;10.42;100.00;93898.41;5070341;28;20422;-85
2022/01/02 11:04:05;;;;;;;9.60;4.68;;;;;;;10.55;100.00;93905.38;5070018;28;20502;-85
2022/01/02 11:06:36;;;;;;;5.85;3.72;;;;;;;10.15;100.00;93890.56;5070036;28;20051;-85
2022/01/02 11:09:03;;;;;;;8.68;4.40;;;;;;;10.37;100.00;93898.97;5070063;28;20070;-84
2022/01/02 11:11:30;;;;;;;61.80;29.30;;;;;;;10.63;100.00;93886.44;5070305;28;20094;-84
2022/01/02 11:13:57;;;;;;;8.52;4.38;;;;;;;10.61;98.51;93896.13;5072448;28;20055;-84
2022/01/02 11:16:24;;;;;;;6.90;4.25;;;;;;;10.46;100.00;93893.72;5073909;28;20139;-84
2022/01/02 11:18:52;;;;;;;6.18;3.67;;;;;;;10.46;99.92;93898.84;5073614;28;20056;-84
2022/01/02 11:21:20;;;;;;;40.80;19.15;;;;;;;10.50;98.14;93894.88;5073219;28;20056;-84
2022/01/02 11:23:55;;;;;;;12.57;6.05;;;;;;;10.54;100.00;93896.09;5073759;28;20465;-84
2022/01/02 11:26:38;;;;;;;8.57;4.07;;;;;;;10.72;100.00;93881.91;5073502;28;20150;-84
2022/01/02 11:29:05;;;;;;;7.70;4.38;;;;;;;10.85;100.00;93876.03;5071138;28;20053;-85